This is the latest recevied weather packets stored in our database for station/object EA7RX-3. If no packets are shown the sender has not sent any weather packets the latest 10 day(s).
| Time | Temp. | Humidity | Pressure | Rain* | Wind** | Luminosity | Snow |
|---|---|---|---|---|---|---|---|
| 1777832301 | 17.78° C | 71% | 1009 hPa | - | - | - | - |
| 1777831702 | 18.33° C | 71% | 1008.8 hPa | - | - | - | - |
| 1777831102 | 18.89° C | 68% | 1008.8 hPa | - | - | - | - |
| 1777830501 | 18.33° C | 67% | 1008.6 hPa | - | - | - | - |
| 1777829901 | 18.89° C | 65% | 1008.5 hPa | - | - | - | - |
| 1777829302 | 20° C | 60% | 1008 hPa | - | - | - | - |
| 1777828702 | 21.11° C | 59% | 1007.8 hPa | - | - | - | - |
| 1777828101 | 20° C | 62% | 1007.6 hPa | - | - | - | - |
| 1777827502 | 20° C | 64% | 1007.8 hPa | - | - | - | - |
| 1777826901 | 22.22° C | 42% | 1006.8 hPa | - | - | - | - |
| 1777826301 | 22.78° C | 40% | 1006.5 hPa | - | - | - | - |
| 1777825702 | 22.78° C | 39% | 1006.5 hPa | - | - | - | - |
| 1777825101 | 22.78° C | 40% | 1006.6 hPa | - | - | - | - |
| 1777824501 | 22.78° C | 40% | 1006.6 hPa | - | - | - | - |
| 1777823901 | 22.78° C | 39% | 1006.6 hPa | - | - | - | - |
| 1777823301 | 22.78° C | 42% | 1006.6 hPa | - | - | - | - |
| 1777822701 | 22.78° C | 41% | 1006.8 hPa | - | - | - | - |
| 1777822101 | 22.78° C | 43% | 1006.5 hPa | - | - | - | - |
| 1777821501 | 22.22° C | 41% | 1006.7 hPa | - | - | - | - |
| 1777820902 | 22.78° C | 41% | 1006.7 hPa | - | - | - | - |
| 1777820303 | 22.22° C | 43% | 1006.9 hPa | - | - | - | - |
| 1777819701 | 21.67° C | 46% | 1007.3 hPa | - | - | - | - |
| 1777819101 | 22.22° C | 43% | 1007.3 hPa | - | - | - | - |
| 1777818503 | 21.11° C | 48% | 1007.5 hPa | - | - | - | - |
| 1777817901 | 21.67° C | 46% | 1007.7 hPa | - | - | - | - |
* Rain since midnight (hover to see other rain measurements)
** Current wind speed in m/s (hover to see current wind gust speed)